Terminal Aerodrome Forecast
Issued by NWS

Home | Current Version | Previous Version | Text Only | Print | Product List | Glossary On
Versions: 1 2 3 4 5 6 7 8 9 10 11 12 13 14 15 16
000
FTUS41 KCAR 271126
TAFHUL
TAF
KHUL 271126Z 2712/2812 35005KT P6SM -SHRA OVC006
     FM271700 03010KT 4SM -SHRA OVC010
     FM272100 02012KT P6SM OVC015=

USA.gov is the U.S. government's official web portal to all federal, state and local government web resources and services.